Time;durP1;ratioP1;P1;durP2;ratioP2;P2;SDS_P1;SDS_P2;PMS_P1;PMS_P2;Temp;Humidity;BMP_temperature;BMP_pressure;BME280_temperature;BME280_humidity;BME280_pressure;Samples;Min_cycle;Max_cycle;Signal;HPM_P1;HPM_P2
2022/05/23 00:00:44;;;;;;;9.57;4.25;;;;;;;;;;5087194;28;20582;-65
2022/05/23 00:03:10;;;;;;;14.15;5.15;;;;;;;;;;5073830;28;20058;-64
2022/05/23 00:05:37;;;;;;;10.90;4.90;;;;;;;;;;5092762;28;20083;-64
2022/05/23 00:08:03;;;;;;;10.35;4.70;;;;;;;;;;5082602;28;20476;-65
2022/05/23 00:10:29;;;;;;;8.45;4.80;;;;;;;;;;5090783;28;20028;-65
2022/05/23 00:12:55;;;;;;;10.32;4.95;;;;;;;;;;5079623;28;20031;-65
2022/05/23 00:15:21;;;;;;;10.38;4.60;;;;;;;;;;5080521;28;20116;-64
2022/05/23 00:17:48;;;;;;;10.18;4.97;;;;;;;;;;5083504;28;20016;-65
2022/05/23 00:20:15;;;;;;;9.98;4.40;;;;;;;;;;5078770;28;20023;-65
2022/05/23 00:22:41;;;;;;;9.32;4.85;;;;;;;;;;5086510;28;20034;-64
2022/05/23 00:25:09;;;;;;;11.10;4.68;;;;;;;;;;5088425;28;20528;-65
2022/05/23 00:27:37;;;;;;;7.22;3.85;;;;;;;;;;5084799;28;20028;-65
2022/05/23 00:30:04;;;;;;;11.48;4.13;;;;;;;;;;5084289;28;20028;-64
2022/05/23 00:35:18;;;;;;;11.32;3.88;;;;;;;;;;5087127;28;20038;-64
2022/05/23 00:37:44;;;;;;;9.90;3.65;;;;;;;;;;5090322;28;20583;-64
2022/05/23 00:40:22;;;;;;;10.13;3.58;;;;;;;;;;5081086;28;20024;-64
2022/05/23 00:45:34;;;;;;;7.50;3.05;;;;;;;;;;5082654;28;20426;-64
2022/05/23 00:48:00;;;;;;;7.18;3.50;;;;;;;;;;5096316;27;20016;-64
2022/05/23 00:50:26;;;;;;;9.10;3.50;;;;;;;;;;5078646;28;20059;-64
2022/05/23 00:52:55;;;;;;;8.48;3.47;;;;;;;;;;5091668;28;20043;-64
2022/05/23 00:55:25;;;;;;;8.15;3.28;;;;;;;;;;5093916;27;20110;-65
2022/05/23 00:57:52;;;;;;;6.97;3.63;;;;;;;;;;5088009;27;20048;-64
2022/05/23 01:00:19;;;;;;;8.20;3.38;;;;;;;;;;5086869;28;20055;-65
2022/05/23 01:02:48;;;;;;;5.97;3.00;;;;;;;;;;5078399;28;20020;-64
2022/05/23 01:05:14;;;;;;;6.50;3.72;;;;;;;;;;5085421;28;20032;-65
2022/05/23 01:07:40;;;;;;;7.90;3.60;;;;;;;;;;5081745;27;20047;-65
2022/05/23 01:10:09;;;;;;;6.90;3.17;;;;;;;;;;5088732;28;20360;-64
2022/05/23 01:12:35;;;;;;;7.05;3.25;;;;;;;;;;5088936;27;20082;-64
2022/05/23 01:15:03;;;;;;;6.88;3.33;;;;;;;;;;5096295;27;20116;-65
2022/05/23 01:17:29;;;;;;;6.72;3.25;;;;;;;;;;5082855;28;20467;-65
2022/05/23 01:19:55;;;;;;;7.55;3.22;;;;;;;;;;5085629;27;20586;-65
2022/05/23 01:22:35;;;;;;;8.07;3.50;;;;;;;;;;5079613;27;20029;-65
2022/05/23 01:25:12;;;;;;;6.75;3.35;;;;;;;;;;5091999;28;20028;-65
2022/05/23 01:27:40;;;;;;;7.75;3.65;;;;;;;;;;5092348;28;20039;-64
2022/05/23 01:30:06;;;;;;;7.38;3.45;;;;;;;;;;5089482;28;20123;-64
2022/05/23 01:32:32;;;;;;;6.30;3.35;;;;;;;;;;5090376;28;20389;-65
2022/05/23 01:34:58;;;;;;;6.88;3.17;;;;;;;;;;5096124;28;20356;-64
2022/05/23 01:37:25;;;;;;;5.78;3.22;;;;;;;;;;5093515;27;20089;-65
2022/05/23 01:39:51;;;;;;;4.43;2.97;;;;;;;;;;5099899;28;20082;-64
2022/05/23 01:42:17;;;;;;;7.18;3.05;;;;;;;;;;5095648;28;20055;-64
2022/05/23 01:44:43;;;;;;;8.23;2.95;;;;;;;;;;5083478;27;20032;-64
2022/05/23 01:47:11;;;;;;;9.13;3.10;;;;;;;;;;5095925;27;20016;-64
2022/05/23 01:49:37;;;;;;;6.65;2.63;;;;;;;;;;5082570;27;20540;-64
2022/05/23 01:52:03;;;;;;;4.05;2.65;;;;;;;;;;5096340;27;20120;-64
2022/05/23 01:54:29;;;;;;;4.65;2.78;;;;;;;;;;5074456;28;20777;-65
2022/05/23 01:56:55;;;;;;;7.40;3.33;;;;;;;;;;5086145;28;20027;-64
2022/05/23 02:02:06;;;;;;;5.47;2.80;;;;;;;;;;5091792;28;20051;-64
2022/05/23 02:04:31;;;;;;;3.97;2.63;;;;;;;;;;5077099;28;20028;-65
2022/05/23 02:06:57;;;;;;;6.60;2.50;;;;;;;;;;5082160;28;20024;-64
2022/05/23 02:09:27;;;;;;;5.40;2.78;;;;;;;;;;5078750;28;20448;-64
2022/05/23 02:11:53;;;;;;;9.18;2.60;;;;;;;;;;5086813;28;20465;-64
2022/05/23 02:14:20;;;;;;;6.90;2.63;;;;;;;;;;5089670;28;20797;-64
2022/05/23 02:16:46;;;;;;;4.97;2.60;;;;;;;;;;5089313;28;20039;-64
2022/05/23 02:19:12;;;;;;;6.53;2.70;;;;;;;;;;5093938;28;20601;-64
2022/05/23 02:21:38;;;;;;;6.95;2.72;;;;;;;;;;5079095;28;20035;-64
2022/05/23 02:24:04;;;;;;;6.20;2.33;;;;;;;;;;5081247;28;20025;-64
2022/05/23 02:26:30;;;;;;;5.68;2.53;;;;;;;;;;5085107;28;20020;-64
2022/05/23 02:28:57;;;;;;;5.75;2.10;;;;;;;;;;5089222;28;20047;-64
2022/05/23 02:31:23;;;;;;;5.30;2.58;;;;;;;;;;5083547;28;20827;-64
2022/05/23 02:33:49;;;;;;;5.85;2.60;;;;;;;;;;5094176;28;20110;-64
2022/05/23 02:36:15;;;;;;;5.38;2.53;;;;;;;;;;5080721;28;20032;-64
2022/05/23 02:38:41;;;;;;;8.02;2.50;;;;;;;;;;5086186;28;20110;-64
2022/05/23 02:41:07;;;;;;;7.70;2.95;;;;;;;;;;5081521;28;20017;-64
2022/05/23 02:43:32;;;;;;;3.97;2.40;;;;;;;;;;5099055;28;20028;-64
2022/05/23 02:45:58;;;;;;;7.57;2.65;;;;;;;;;;5084561;28;20020;-64
2022/05/23 02:48:24;;;;;;;6.05;2.53;;;;;;;;;;5087485;28;20040;-64
2022/05/23 02:50:50;;;;;;;5.85;2.35;;;;;;;;;;5081766;28;20026;-64
2022/05/23 02:53:16;;;;;;;4.75;2.35;;;;;;;;;;5086720;27;20047;-65
2022/05/23 02:55:42;;;;;;;4.22;2.40;;;;;;;;;;5089183;28;20062;-64
2022/05/23 02:58:08;;;;;;;4.65;2.33;;;;;;;;;;5084476;28;20023;-64
2022/05/23 03:00:35;;;;;;;5.80;2.30;;;;;;;;;;5087193;28;20111;-64
2022/05/23 03:03:01;;;;;;;6.25;2.30;;;;;;;;;;5087472;28;20028;-65
2022/05/23 03:05:27;;;;;;;6.80;2.70;;;;;;;;;;5085488;28;20024;-64
2022/05/23 03:07:53;;;;;;;5.38;2.40;;;;;;;;;;5093878;28;20025;-65
2022/05/23 03:10:19;;;;;;;6.30;2.33;;;;;;;;;;5082165;28;20125;-64
2022/05/23 03:12:45;;;;;;;7.55;2.60;;;;;;;;;;5079941;28;20028;-64
2022/05/23 03:15:12;;;;;;;4.07;2.53;;;;;;;;;;5087153;28;20081;-64
2022/05/23 03:17:38;;;;;;;6.90;2.80;;;;;;;;;;5089152;27;20067;-64
2022/05/23 03:20:05;;;;;;;5.43;2.55;;;;;;;;;;5087107;28;20036;-65
2022/05/23 03:28:01;;;;;;;5.13;2.85;;;;;;;;;;5078848;28;20042;-64
2022/05/23 03:30:28;;;;;;;5.53;2.90;;;;;;;;;;5086898;28;20027;-65
2022/05/23 03:32:54;;;;;;;6.07;2.72;;;;;;;;;;5096088;28;20031;-65
2022/05/23 03:35:20;;;;;;;4.32;2.50;;;;;;;;;;5075457;28;20039;-65
2022/05/23 03:37:46;;;;;;;6.68;2.60;;;;;;;;;;5075241;28;20059;-64
2022/05/23 03:40:13;;;;;;;6.10;2.30;;;;;;;;;;5088359;28;20079;-64
2022/05/23 03:42:39;;;;;;;5.10;2.50;;;;;;;;;;5081584;28;20523;-65
2022/05/23 03:45:06;;;;;;;5.05;3.00;;;;;;;;;;5086616;28;20015;-65
2022/05/23 03:47:32;;;;;;;4.65;2.70;;;;;;;;;;5085055;28;20031;-64
2022/05/23 03:49:58;;;;;;;7.53;3.22;;;;;;;;;;5078313;28;20116;-64
2022/05/23 03:52:24;;;;;;;7.05;3.25;;;;;;;;;;5081148;28;20032;-64
2022/05/23 03:54:50;;;;;;;4.65;2.95;;;;;;;;;;5086388;28;20089;-64
2022/05/23 03:57:16;;;;;;;5.50;3.05;;;;;;;;;;5087114;28;20059;-64
2022/05/23 03:59:45;;;;;;;7.30;3.03;;;;;;;;;;5082235;28;20036;-64
2022/05/23 04:02:11;;;;;;;6.60;3.15;;;;;;;;;;5091245;28;20682;-65
2022/05/23 04:04:37;;;;;;;6.47;2.80;;;;;;;;;;5083678;28;20065;-64
2022/05/23 04:07:04;;;;;;;8.25;3.10;;;;;;;;;;5094595;28;20020;-64
2022/05/23 04:09:30;;;;;;;5.20;3.00;;;;;;;;;;5083363;28;20026;-65
2022/05/23 04:11:57;;;;;;;6.72;3.13;;;;;;;;;;5094503;28;20349;-64
2022/05/23 04:14:25;;;;;;;6.43;3.10;;;;;;;;;;5087829;28;20107;-64
2022/05/23 04:16:52;;;;;;;4.43;3.08;;;;;;;;;;5083028;28;20017;-64
2022/05/23 04:19:18;;;;;;;6.15;3.13;;;;;;;;;;5079276;28;20118;-64
2022/05/23 04:21:44;;;;;;;6.43;3.33;;;;;;;;;;5089012;28;20024;-64
2022/05/23 04:24:11;;;;;;;4.85;3.22;;;;;;;;;;5086930;28;20376;-65
2022/05/23 04:26:37;;;;;;;6.22;3.20;;;;;;;;;;5082102;28;20035;-64
2022/05/23 04:29:06;;;;;;;4.70;3.08;;;;;;;;;;5081320;28;20028;-65
2022/05/23 04:31:32;;;;;;;5.63;3.05;;;;;;;;;;5091136;28;20779;-64
2022/05/23 04:36:43;;;;;;;4.68;2.70;;;;;;;;;;5074777;28;20111;-64
2022/05/23 04:39:09;;;;;;;6.90;3.53;;;;;;;;;;5085482;28;20050;-64
2022/05/23 04:41:35;;;;;;;6.25;3.63;;;;;;;;;;5091883;28;20463;-64
2022/05/23 04:44:01;;;;;;;5.63;3.08;;;;;;;;;;5095186;28;20375;-65
2022/05/23 04:46:28;;;;;;;4.75;2.95;;;;;;;;;;5079638;28;20021;-64
2022/05/23 04:51:39;;;;;;;5.63;2.88;;;;;;;;;;5080592;28;20043;-64
2022/05/23 04:54:05;;;;;;;6.38;2.97;;;;;;;;;;5094642;28;20024;-65
2022/05/23 04:56:31;;;;;;;6.80;3.25;;;;;;;;;;5083858;28;20055;-63
2022/05/23 04:58:58;;;;;;;7.20;3.22;;;;;;;;;;5093359;28;20019;-64
2022/05/23 05:01:24;;;;;;;6.13;2.70;;;;;;;;;;5080860;28;20480;-63
2022/05/23 05:03:53;;;;;;;5.68;2.63;;;;;;;;;;5091379;28;20020;-63
2022/05/23 05:06:19;;;;;;;6.00;2.40;;;;;;;;;;5082426;28;20008;-64
2022/05/23 05:08:45;;;;;;;5.47;2.70;;;;;;;;;;5085455;28;20038;-64
2022/05/23 05:11:11;;;;;;;4.70;2.47;;;;;;;;;;5082222;28;20036;-64
2022/05/23 05:13:38;;;;;;;5.20;2.70;;;;;;;;;;5087906;28;20028;-63
2022/05/23 05:16:04;;;;;;;5.00;2.60;;;;;;;;;;5081912;28;20020;-63
2022/05/23 05:18:31;;;;;;;52.05;42.35;;;;;;;;;;5082587;28;20051;-64
2022/05/23 05:20:57;;;;;;;20.48;14.70;;;;;;;;;;5072240;28;20055;-66
2022/05/23 05:23:24;;;;;;;7.57;4.65;;;;;;;;;;5073474;28;20448;-65
2022/05/23 05:25:52;;;;;;;7.45;3.03;;;;;;;;;;5077494;28;20031;-65
2022/05/23 05:28:18;;;;;;;4.40;2.67;;;;;;;;;;5076681;28;20751;-65
2022/05/23 05:30:48;;;;;;;6.30;2.50;;;;;;;;;;5088005;28;20490;-66
2022/05/23 05:33:16;;;;;;;7.88;2.70;;;;;;;;;;5098426;28;20028;-66
2022/05/23 05:35:45;;;;;;;6.57;2.88;;;;;;;;;;5102145;28;20031;-66
2022/05/23 05:38:20;;;;;;;5.53;2.55;;;;;;;;;;5084862;28;20028;-65
2022/05/23 05:40:48;;;;;;;5.00;2.70;;;;;;;;;;5086055;28;20074;-65
2022/05/23 05:43:19;;;;;;;6.90;2.83;;;;;;;;;;5087028;28;20035;-66
2022/05/23 05:45:48;;;;;;;6.18;2.60;;;;;;;;;;5097742;28;20028;-66
2022/05/23 05:48:15;;;;;;;8.30;2.72;;;;;;;;;;5088304;28;20731;-66
2022/05/23 05:50:42;;;;;;;7.47;3.00;;;;;;;;;;5093393;28;20437;-66
2022/05/23 05:53:10;;;;;;;7.88;3.00;;;;;;;;;;5074175;28;20395;-66
2022/05/23 05:55:37;;;;;;;11.43;3.35;;;;;;;;;;5091150;28;20031;-66
2022/05/23 05:58:03;;;;;;;10.43;3.22;;;;;;;;;;5094030;28;20028;-66
2022/05/23 06:00:29;;;;;;;10.70;3.10;;;;;;;;;;5084851;28;20028;-66
2022/05/23 06:02:55;;;;;;;7.50;2.63;;;;;;;;;;5090391;28;20671;-66
2022/05/23 06:05:21;;;;;;;8.60;2.83;;;;;;;;;;5094770;28;20008;-65
2022/05/23 06:13:17;;;;;;;5.72;2.30;;;;;;;;;;5092835;28;20038;-66
2022/05/23 06:15:44;;;;;;;5.63;2.40;;;;;;;;;;5091093;28;20062;-65
2022/05/23 06:18:10;;;;;;;8.00;2.90;;;;;;;;;;5080259;28;20107;-65
2022/05/23 06:20:36;;;;;;;5.72;2.30;;;;;;;;;;5086224;28;20382;-65
2022/05/23 06:23:03;;;;;;;6.38;2.50;;;;;;;;;;5085964;28;20019;-65
2022/05/23 06:25:29;;;;;;;7.15;2.50;;;;;;;;;;5082708;28;20510;-62
2022/05/23 06:27:55;;;;;;;12.20;5.13;;;;;;;;;;5098256;28;20046;-65
2022/05/23 06:30:21;;;;;;;12.82;4.60;;;;;;;;;;5074298;28;20032;-66
2022/05/23 06:32:48;;;;;;;6.88;2.95;;;;;;;;;;5081284;28;20053;-65
2022/05/23 06:35:15;;;;;;;7.95;2.58;;;;;;;;;;5083046;28;20042;-65
2022/05/23 06:37:42;;;;;;;9.40;2.60;;;;;;;;;;5076257;28;20533;-65
2022/05/23 06:40:09;;;;;;;8.50;2.65;;;;;;;;;;5076225;28;20036;-65
2022/05/23 06:42:35;;;;;;;6.43;2.70;;;;;;;;;;5079013;28;20028;-65
2022/05/23 06:45:01;;;;;;;8.05;3.00;;;;;;;;;;5089072;28;20494;-65
2022/05/23 06:47:28;;;;;;;7.97;2.90;;;;;;;;;;5078867;28;20025;-65
2022/05/23 06:49:54;;;;;;;8.00;2.55;;;;;;;;;;5078020;28;20638;-65
2022/05/23 06:52:20;;;;;;;7.65;2.83;;;;;;;;;;5082520;28;20036;-65
2022/05/23 06:54:46;;;;;;;8.90;2.50;;;;;;;;;;5073897;28;20368;-65
2022/05/23 06:57:12;;;;;;;6.78;2.55;;;;;;;;;;5078489;28;20028;-65
2022/05/23 06:59:38;;;;;;;4.60;2.75;;;;;;;;;;5079352;28;20519;-65
2022/05/23 07:02:06;;;;;;;8.27;3.28;;;;;;;;;;5082537;28;20500;-65
2022/05/23 07:12:45;;;;;;;4.60;1.90;;;;;;;;;;5085976;28;20035;-65
2022/05/23 07:15:11;;;;;;;3.65;2.00;;;;;;;;;;5071022;28;20460;-65
2022/05/23 07:17:37;;;;;;;4.43;2.13;;;;;;;;;;5086172;28;20823;-65
2022/05/23 07:20:05;;;;;;;5.55;2.10;;;;;;;;;;5071111;28;20082;-65
2022/05/23 07:22:31;;;;;;;8.45;2.35;;;;;;;;;;5085151;28;20122;-65
2022/05/23 07:24:57;;;;;;;7.25;2.33;;;;;;;;;;5082935;28;20597;-65
2022/05/23 07:27:25;;;;;;;6.40;2.20;;;;;;;;;;5083296;28;20438;-66
2022/05/23 07:29:51;;;;;;;3.50;2.17;;;;;;;;;;5087004;28;20031;-65
2022/05/23 07:32:17;;;;;;;5.70;2.08;;;;;;;;;;5088500;28;20167;-66
2022/05/23 07:34:44;;;;;;;7.15;2.38;;;;;;;;;;5098845;28;20016;-65
2022/05/23 07:37:10;;;;;;;4.72;2.20;;;;;;;;;;5086279;28;20020;-65
2022/05/23 07:39:36;;;;;;;4.72;2.00;;;;;;;;;;5090270;28;20150;-65
2022/05/23 07:42:03;;;;;;;4.82;2.08;;;;;;;;;;5091084;28;20047;-65
2022/05/23 07:44:29;;;;;;;6.22;2.13;;;;;;;;;;5086746;28;20372;-65
2022/05/23 07:46:56;;;;;;;5.05;2.08;;;;;;;;;;5075634;28;20062;-65
2022/05/23 07:49:22;;;;;;;4.78;2.17;;;;;;;;;;5079625;28;20600;-65
2022/05/23 07:51:48;;;;;;;3.20;1.90;;;;;;;;;;5080045;28;20081;-65
2022/05/23 08:02:28;;;;;;;6.72;2.15;;;;;;;;;;5070660;28;20125;-65
2022/05/23 08:04:55;;;;;;;6.28;2.33;;;;;;;;;;5078913;28;20077;-65
2022/05/23 08:07:21;;;;;;;4.65;2.20;;;;;;;;;;5081733;28;20012;-65
2022/05/23 08:09:47;;;;;;;6.22;2.05;;;;;;;;;;5089491;28;20076;-65
2022/05/23 08:12:14;;;;;;;5.47;2.33;;;;;;;;;;5088814;28;20024;-65
2022/05/23 08:14:40;;;;;;;6.72;2.22;;;;;;;;;;5083933;28;20491;-65
2022/05/23 08:17:06;;;;;;;5.40;2.33;;;;;;;;;;5092302;28;20146;-65
2022/05/23 08:19:32;;;;;;;7.30;2.63;;;;;;;;;;5087491;28;20054;-65
2022/05/23 08:21:59;;;;;;;9.23;2.53;;;;;;;;;;5077456;28;20107;-65
2022/05/23 08:24:25;;;;;;;4.22;2.10;;;;;;;;;;5080087;28;20477;-65
2022/05/23 08:26:51;;;;;;;5.30;2.22;;;;;;;;;;5084764;28;20120;-66
2022/05/23 08:29:17;;;;;;;5.50;2.30;;;;;;;;;;5084594;28;20047;-66
2022/05/23 08:31:44;;;;;;;6.28;2.20;;;;;;;;;;5083831;28;20101;-65
2022/05/23 08:34:10;;;;;;;4.45;2.03;;;;;;;;;;5075503;28;20497;-65
2022/05/23 08:36:36;;;;;;;5.00;2.20;;;;;;;;;;5077558;28;20032;-66
2022/05/23 08:39:03;;;;;;;6.57;2.45;;;;;;;;;;5084733;28;20028;-66
2022/05/23 08:41:31;;;;;;;7.18;2.05;;;;;;;;;;5084973;28;20025;-65
2022/05/23 08:44:14;;;;;;;6.38;2.47;;;;;;;;;;5090913;28;20459;-65
2022/05/23 08:46:46;;;;;;;9.05;2.25;;;;;;;;;;5083107;28;20035;-65
2022/05/23 08:49:27;;;;;;;4.63;2.23;;;;;;;;;;5083611;28;20568;-65
2022/05/23 08:52:05;;;;;;;7.78;2.45;;;;;;;;;;5069684;28;20114;-65
2022/05/23 08:54:49;;;;;;;4.97;2.58;;;;;;;;;;5074387;28;20036;-65
2022/05/23 08:57:28;;;;;;;4.32;2.08;;;;;;;;;;5080964;28;20126;-66
2022/05/23 08:59:56;;;;;;;5.03;2.63;;;;;;;;;;5078614;28;20470;-66
2022/05/23 09:02:33;;;;;;;5.03;2.20;;;;;;;;;;5083850;28;20024;-66
2022/05/23 09:05:04;;;;;;;4.40;2.40;;;;;;;;;;5086365;28;20482;-65
2022/05/23 09:07:42;;;;;;;4.43;2.15;;;;;;;;;;5081012;28;20035;-65
2022/05/23 09:10:31;;;;;;;5.03;2.20;;;;;;;;;;5087293;28;20073;-66
2022/05/23 09:12:57;;;;;;;6.10;2.47;;;;;;;;;;5089451;28;20051;-66
2022/05/23 09:15:24;;;;;;;6.50;2.53;;;;;;;;;;5083596;28;20512;-66
2022/05/23 09:18:13;;;;;;;5.82;2.10;;;;;;;;;;5094063;28;20020;-66
2022/05/23 09:20:41;;;;;;;5.88;2.33;;;;;;;;;;5089077;28;20502;-66
2022/05/23 09:23:10;;;;;;;4.28;2.08;;;;;;;;;;5089876;28;20143;-66
2022/05/23 09:25:37;;;;;;;5.25;1.98;;;;;;;;;;5084002;28;20089;-66
2022/05/23 09:28:05;;;;;;;5.68;2.30;;;;;;;;;;5082761;28;20048;-65
2022/05/23 09:30:32;;;;;;;6.63;2.47;;;;;;;;;;5087352;28;20113;-65
2022/05/23 09:33:08;;;;;;;6.50;2.25;;;;;;;;;;5084223;28;20028;-66
2022/05/23 09:35:40;;;;;;;6.22;2.00;;;;;;;;;;5092521;28;20027;-66
2022/05/23 09:38:29;;;;;;;6.22;2.40;;;;;;;;;;5081507;28;20394;-66
2022/05/23 09:40:55;;;;;;;6.72;2.58;;;;;;;;;;5089026;28;20031;-65
2022/05/23 09:49:02;;;;;;;6.80;2.53;;;;;;;;;;5083855;28;20549;-65
2022/05/23 09:51:28;;;;;;;5.78;2.60;;;;;;;;;;5080541;28;20048;-66
2022/05/23 09:53:55;;;;;;;6.40;2.20;;;;;;;;;;5096166;28;20067;-66
2022/05/23 09:56:36;;;;;;;5.28;2.25;;;;;;;;;;5081235;28;20036;-65
2022/05/23 09:59:06;;;;;;;7.57;2.55;;;;;;;;;;5081827;28;20054;-66
2022/05/23 10:01:33;;;;;;;3.53;1.90;;;;;;;;;;5081985;28;20029;-66
2022/05/23 10:04:00;;;;;;;4.95;2.28;;;;;;;;;;5086046;28;20020;-66
2022/05/23 10:06:34;;;;;;;3.75;2.22;;;;;;;;;;5091142;28;20028;-65
2022/05/23 10:09:00;;;;;;;4.63;2.30;;;;;;;;;;5077819;28;20035;-66
2022/05/23 10:11:34;;;;;;;6.47;2.00;;;;;;;;;;5087901;28;20032;-66
2022/05/23 10:14:05;;;;;;;7.70;2.40;;;;;;;;;;5095487;28;20660;-66
2022/05/23 10:16:48;;;;;;;6.20;2.38;;;;;;;;;;5086695;28;20503;-66
2022/05/23 10:19:34;;;;;;;5.38;2.22;;;;;;;;;;5080706;28;20407;-66
2022/05/23 10:22:18;;;;;;;5.50;2.30;;;;;;;;;;5083958;28;20081;-66
2022/05/23 10:24:56;;;;;;;5.68;2.15;;;;;;;;;;5094263;28;20012;-66
2022/05/23 10:27:32;;;;;;;4.20;2.20;;;;;;;;;;5091106;28;20505;-66
2022/05/23 10:30:00;;;;;;;5.72;2.05;;;;;;;;;;5098716;28;20023;-65
2022/05/23 10:32:45;;;;;;;7.18;2.25;;;;;;;;;;5089363;28;20047;-66
2022/05/23 10:35:11;;;;;;;5.43;2.10;;;;;;;;;;5086405;28;20016;-65
2022/05/23 10:37:39;;;;;;;8.55;2.20;;;;;;;;;;5091758;28;20390;-66
2022/05/23 10:42:57;;;;;;;5.10;2.03;;;;;;;;;;5085132;28;20565;-66
2022/05/23 10:45:25;;;;;;;4.67;2.63;;;;;;;;;;5085229;28;20024;-66
2022/05/23 10:48:10;;;;;;;7.30;2.30;;;;;;;;;;5081622;28;20027;-66
2022/05/23 10:50:54;;;;;;;4.85;2.15;;;;;;;;;;5085953;28;20107;-66
2022/05/23 10:53:20;;;;;;;;;;;;;;;;;;5081879;28;20647;-66
2022/05/23 10:56:04;;;;;;;5.07;2.28;;;;;;;;;;5090748;28;19917;-66
2022/05/23 10:58:40;;;;;;;5.65;2.20;;;;;;;;;;5092546;28;20617;-67
2022/05/23 11:01:22;;;;;;;5.90;2.47;;;;;;;;;;5088871;28;20395;-67
2022/05/23 11:03:57;;;;;;;4.32;2.20;;;;;;;;;;5072326;28;20035;-66
2022/05/23 11:06:31;;;;;;;5.93;2.83;;;;;;;;;;5083469;28;20109;-66
2022/05/23 11:08:56;;;;;;;;;;;;;;;;;;5078900;28;20028;-66
2022/05/23 11:11:32;;;;;;;5.63;2.50;;;;;;;;;;5075565;28;20539;-66
2022/05/23 11:14:20;;;;;;;6.80;2.33;;;;;;;;;;5093949;28;20032;-66
2022/05/23 11:16:53;;;;;;;8.23;2.30;;;;;;;;;;5087036;28;20392;-66
2022/05/23 11:19:31;;;;;;;7.30;2.42;;;;;;;;;;5074593;28;20020;-66
2022/05/23 11:21:58;;;;;;;6.60;2.08;;;;;;;;;;5078939;28;20026;-66
2022/05/23 11:24:28;;;;;;;5.90;2.40;;;;;;;;;;5098836;28;20059;-67
2022/05/23 11:33:41;;;;;;;7.78;2.42;;;;;;;;;;5079959;28;20036;-67
2022/05/23 11:35:23;;;;;;;6.97;2.20;;;;;;;;;;5079211;28;20035;-66
2022/05/23 11:37:49;;;;;;;4.00;2.50;;;;;;;;;;5096832;28;20047;-66
2022/05/23 11:40:28;;;;;;;6.43;2.60;;;;;;;;;;5091646;28;20085;-67
2022/05/23 11:42:58;;;;;;;6.10;2.20;;;;;;;;;;5083813;28;20024;-66
2022/05/23 11:48:39;;;;;;;4.65;2.33;;;;;;;;;;5075663;28;20457;-66
2022/05/23 11:51:23;;;;;;;7.10;2.17;;;;;;;;;;5070280;28;20039;-66
2022/05/23 11:53:56;;;;;;;4.05;2.28;;;;;;;;;;5083894;28;20036;-66
2022/05/23 11:56:41;;;;;;;6.70;2.70;;;;;;;;;;5094607;28;20498;-66
2022/05/23 11:59:08;;;;;;;6.03;2.38;;;;;;;;;;5088928;28;20051;-66
2022/05/23 12:01:35;;;;;;;4.93;2.15;;;;;;;;;;5084952;28;20031;-66
2022/05/23 12:04:01;;;;;;;6.85;2.20;;;;;;;;;;5082445;28;20077;-66
2022/05/23 12:06:30;;;;;;;5.35;2.30;;;;;;;;;;5082621;28;20435;-66
2022/05/23 12:08:59;;;;;;;5.60;2.30;;;;;;;;;;5084552;28;20063;-66
2022/05/23 12:11:29;;;;;;;9.63;2.05;;;;;;;;;;5080776;28;20716;-66
2022/05/23 12:13:59;;;;;;;6.88;2.60;;;;;;;;;;5093170;28;20035;-66
2022/05/23 12:16:31;;;;;;;5.90;2.10;;;;;;;;;;5082962;28;20092;-67
2022/05/23 12:19:17;;;;;;;10.20;2.63;;;;;;;;;;5078230;28;20060;-66
2022/05/23 12:21:45;;;;;;;6.53;2.30;;;;;;;;;;5079554;28;20020;-66
2022/05/23 12:24:29;;;;;;;5.90;2.30;;;;;;;;;;5096245;28;20937;-66
2022/05/23 12:26:57;;;;;;;4.30;2.30;;;;;;;;;;5088424;28;20032;-66
2022/05/23 12:29:31;;;;;;;6.82;2.33;;;;;;;;;;5083094;28;20029;-66
2022/05/23 12:32:04;;;;;;;6.53;2.55;;;;;;;;;;5085163;28;20043;-66
2022/05/23 12:34:30;;;;;;;6.50;2.80;;;;;;;;;;5078970;28;20038;-66
2022/05/23 12:36:58;;;;;;;5.75;2.15;;;;;;;;;;5084988;28;20060;-66
2022/05/23 12:39:44;;;;;;;4.55;2.40;;;;;;;;;;5091009;28;20055;-66
2022/05/23 12:42:28;;;;;;;6.93;2.22;;;;;;;;;;5087486;28;20034;-66
2022/05/23 12:45:04;;;;;;;6.65;2.60;;;;;;;;;;5086470;28;20062;-66
2022/05/23 12:47:45;;;;;;;4.57;2.45;;;;;;;;;;5084699;28;20505;-66
2022/05/23 12:50:32;;;;;;;4.60;2.30;;;;;;;;;;5075018;28;20020;-66
2022/05/23 12:52:58;;;;;;;7.57;2.50;;;;;;;;;;5081745;28;20020;-66
2022/05/23 12:55:42;;;;;;;4.45;2.47;;;;;;;;;;5089627;28;20024;-66
2022/05/23 12:58:27;;;;;;;7.03;2.72;;;;;;;;;;5077603;28;20054;-66
2022/05/23 13:00:58;;;;;;;5.88;2.45;;;;;;;;;;5077443;28;20025;-66
2022/05/23 13:03:50;;;;;;;4.93;2.67;;;;;;;;;;5081701;28;20516;-66
2022/05/23 13:06:20;;;;;;;5.38;2.28;;;;;;;;;;5073503;28;20114;-66
2022/05/23 13:08:53;;;;;;;6.40;2.50;;;;;;;;;;5083667;28;20020;-66
2022/05/23 13:11:29;;;;;;;6.97;2.97;;;;;;;;;;5086013;28;20056;-66
2022/05/23 13:13:58;;;;;;;4.75;2.67;;;;;;;;;;5092237;28;20020;-65
2022/05/23 13:16:29;;;;;;;6.25;3.00;;;;;;;;;;5081356;28;20025;-65
2022/05/23 13:27:13;;;;;;;8.52;3.10;;;;;;;;;;5080478;28;20082;-64
2022/05/23 13:29:39;;;;;;;5.10;3.00;;;;;;;;;;5082462;28;20028;-63
2022/05/23 13:32:11;;;;;;;7.50;3.30;;;;;;;;;;5084677;28;20039;-63
2022/05/23 13:34:39;;;;;;;6.45;3.40;;;;;;;;;;5079694;28;20056;-63
2022/05/23 13:37:06;;;;;;;9.63;3.42;;;;;;;;;;5089357;28;20028;-65
2022/05/23 13:39:32;;;;;;;6.47;3.58;;;;;;;;;;5087206;28;20458;-65
2022/05/23 13:42:02;;;;;;;5.30;3.25;;;;;;;;;;5087903;28;20032;-65
2022/05/23 13:44:32;;;;;;;9.05;3.70;;;;;;;;;;5081729;28;20050;-64
2022/05/23 13:47:06;;;;;;;16.10;4.68;;;;;;;;;;5089559;28;20468;-63
2022/05/23 13:49:35;;;;;;;9.95;3.67;;;;;;;;;;5086777;28;20023;-63
2022/05/23 13:52:02;;;;;;;8.68;3.47;;;;;;;;;;5082966;28;20107;-63
2022/05/23 13:54:35;;;;;;;6.45;3.33;;;;;;;;;;5087884;28;20099;-64
2022/05/23 13:57:01;;;;;;;;;;;;;;;;;;5094399;28;20024;-65
2022/05/23 13:59:30;;;;;;;11.07;4.25;;;;;;;;;;5089481;28;20399;-64
2022/05/23 14:01:58;;;;;;;8.35;4.20;;;;;;;;;;5094144;28;20614;-65
2022/05/23 14:04:28;;;;;;;14.52;4.63;;;;;;;;;;5081536;28;20514;-65
2022/05/23 14:06:57;;;;;;;11.32;4.60;;;;;;;;;;5082903;28;20028;-65
2022/05/23 14:09:23;;;;;;;9.93;4.88;;;;;;;;;;5097976;28;21055;-65
2022/05/23 14:11:52;;;;;;;8.88;5.07;;;;;;;;;;5086760;28;20109;-65
2022/05/23 14:14:18;;;;;;;12.50;5.10;;;;;;;;;;5086111;28;20028;-65
2022/05/23 14:16:55;;;;;;;9.80;4.57;;;;;;;;;;5077991;28;20495;-65
2022/05/23 14:19:23;;;;;;;14.00;5.22;;;;;;;;;;5088021;28;20590;-66
2022/05/23 14:22:01;;;;;;;13.70;5.63;;;;;;;;;;5080481;28;20019;-66
2022/05/23 14:24:28;;;;;;;12.18;5.20;;;;;;;;;;5088588;28;20028;-65
2022/05/23 14:27:09;;;;;;;13.15;5.15;;;;;;;;;;5081001;28;20032;-65
2022/05/23 14:29:35;;;;;;;9.70;4.65;;;;;;;;;;5078254;28;20551;-66
2022/05/23 14:32:01;;;;;;;10.70;5.28;;;;;;;;;;5082273;28;20107;-66
2022/05/23 14:34:28;;;;;;;17.63;7.75;;;;;;;;;;5086731;28;20032;-66
2022/05/23 14:37:00;;;;;;;9.50;4.47;;;;;;;;;;5088671;28;20590;-59
2022/05/23 14:39:28;;;;;;;11.25;4.90;;;;;;;;;;5082814;28;20403;-61
2022/05/23 14:41:54;;;;;;;9.30;4.50;;;;;;;;;;5092471;28;20130;-58
2022/05/23 14:44:20;;;;;;;11.00;4.80;;;;;;;;;;5073903;28;20602;-61
2022/05/23 14:46:59;;;;;;;10.52;4.50;;;;;;;;;;5093902;28;20432;-60
2022/05/23 14:49:32;;;;;;;8.15;4.30;;;;;;;;;;5080537;27;20512;-59
2022/05/23 14:51:58;;;;;;;11.07;4.50;;;;;;;;;;5097110;28;20720;-60
2022/05/23 15:02:55;;;;;;;8.65;3.55;;;;;;;;;;5091538;28;20089;-61
2022/05/23 15:05:21;;;;;;;7.63;3.70;;;;;;;;;;5091619;28;20035;-61
2022/05/23 15:07:57;;;;;;;6.97;3.70;;;;;;;;;;5088393;28;20391;-60
2022/05/23 15:10:23;;;;;;;8.07;3.47;;;;;;;;;;5091846;28;20055;-61
2022/05/23 15:12:49;;;;;;;7.20;3.08;;;;;;;;;;5075136;28;20566;-58
2022/05/23 15:15:16;;;;;;;5.35;2.88;;;;;;;;;;5077770;28;20605;-60
2022/05/23 15:17:42;;;;;;;8.27;3.30;;;;;;;;;;5097067;28;20035;-61
2022/05/23 15:20:10;;;;;;;8.27;3.42;;;;;;;;;;5092369;28;20043;-60
2022/05/23 15:22:36;;;;;;;7.07;3.10;;;;;;;;;;5085898;28;20024;-59
2022/05/23 15:25:02;;;;;;;5.57;2.42;;;;;;;;;;5084468;28;20384;-58
2022/05/23 15:27:29;;;;;;;7.47;2.47;;;;;;;;;;5084500;28;20135;-62
2022/05/23 15:29:57;;;;;;;5.28;2.30;;;;;;;;;;5089576;28;20032;-61
2022/05/23 15:32:23;;;;;;;5.28;2.47;;;;;;;;;;5090473;28;20032;-61
2022/05/23 15:34:49;;;;;;;5.43;2.45;;;;;;;;;;5084070;28;20286;-60
2022/05/23 15:37:16;;;;;;;5.82;2.78;;;;;;;;;;5094107;28;20630;-61
2022/05/23 15:39:42;;;;;;;4.57;2.60;;;;;;;;;;5087144;28;20016;-60
2022/05/23 15:42:11;;;;;;;6.00;2.38;;;;;;;;;;5088472;28;20072;-62
2022/05/23 15:44:38;;;;;;;5.35;2.42;;;;;;;;;;5090132;28;20472;-61
2022/05/23 15:47:07;;;;;;;5.40;2.40;;;;;;;;;;5077493;28;20017;-61
2022/05/23 15:49:33;;;;;;;17.20;12.90;;;;;;;;;;5087291;28;20520;-64
2022/05/23 15:52:02;;;;;;;15.50;10.55;;;;;;;;;;5089230;28;20039;-60
2022/05/23 15:54:29;;;;;;;7.03;2.67;;;;;;;;;;5086065;28;20065;-61
2022/05/23 15:56:55;;;;;;;5.95;2.60;;;;;;;;;;5088861;28;20038;-61
2022/05/23 15:59:22;;;;;;;4.93;2.63;;;;;;;;;;5092256;28;20467;-57
2022/05/23 16:01:48;;;;;;;6.05;2.70;;;;;;;;;;5073247;28;20025;-60
2022/05/23 16:04:15;;;;;;;5.90;2.90;;;;;;;;;;5090832;28;20111;-58
2022/05/23 16:06:42;;;;;;;5.25;2.78;;;;;;;;;;5077818;28;20502;-57
2022/05/23 16:09:08;;;;;;;5.43;2.63;;;;;;;;;;5092561;27;20076;-60